createdAt,value
2022-09-30T00:04:24.210Z,0.98
2022-09-30T00:09:16.787Z,1.02
2022-09-30T00:14:15.759Z,0.88
2022-09-30T00:19:07.436Z,0.90
2022-09-30T00:23:59.091Z,0.80
2022-09-30T00:28:56.565Z,0.70
2022-09-30T00:34:07.483Z,0.68
2022-09-30T00:38:59.415Z,0.70
2022-09-30T00:43:54.061Z,0.80
2022-09-30T00:48:53.794Z,0.90
2022-09-30T00:53:55.053Z,0.88
2022-09-30T00:59:34.994Z,0.88
2022-09-30T01:04:29.535Z,0.60
2022-09-30T01:09:21.588Z,0.82
2022-09-30T01:14:20.364Z,0.80
2022-09-30T01:19:27.472Z,0.88
2022-09-30T01:24:34.486Z,0.90
2022-09-30T01:29:44.077Z,0.68
2022-09-30T01:34:55.316Z,0.68
2022-09-30T01:40:03.039Z,0.80
2022-09-30T01:45:07.887Z,1.10
2022-09-30T01:50:24.459Z,0.70
2022-09-30T01:55:29.509Z,1.10
2022-09-30T02:00:21.323Z,0.82
2022-09-30T02:05:19.770Z,1.10
2022-09-30T02:10:18.054Z,1.05
2022-09-30T02:15:13.967Z,1.10
2022-09-30T02:20:21.160Z,1.40
2022-09-30T02:25:20.442Z,1.25
2022-09-30T02:30:14.211Z,1.40
2022-09-30T02:35:13.962Z,1.85
2022-09-30T02:40:23.612Z,2.08
2022-09-30T02:45:21.875Z,1.27
2022-09-30T02:50:28.572Z,1.70
2022-09-30T02:55:30.876Z,1.20
2022-09-30T03:00:24.039Z,1.30
2022-09-30T03:05:17.621Z,1.15
2022-09-30T03:10:16.676Z,1.08
2022-09-30T03:15:14.239Z,1.10
2022-09-30T03:20:19.108Z,1.00
2022-09-30T03:25:16.973Z,1.27
2022-09-30T03:30:15.340Z,1.17
2022-09-30T03:35:13.483Z,1.00
2022-09-30T03:45:04.026Z,1.40
2022-09-30T03:50:00.469Z,1.73
2022-09-30T03:54:55.556Z,1.42
2022-09-30T03:59:47.283Z,2.08
2022-09-30T04:04:42.787Z,1.98
2022-09-30T04:09:35.071Z,2.13
2022-09-30T04:14:26.769Z,2.00
2022-09-30T04:19:18.582Z,2.35
2022-09-30T04:24:10.136Z,2.42
2022-09-30T04:29:01.900Z,3.17
2022-09-30T04:33:53.948Z,2.58
2022-09-30T04:38:45.492Z,2.10
2022-09-30T04:43:37.121Z,3.03
2022-09-30T04:48:30.359Z,2.92
2022-09-30T04:53:22.009Z,2.83
2022-09-30T04:58:13.680Z,2.17
2022-09-30T05:03:05.669Z,2.95
2022-09-30T05:08:02.052Z,2.35
2022-09-30T05:12:53.973Z,2.08
2022-09-30T05:17:49.265Z,2.42
2022-09-30T05:22:40.927Z,3.05
2022-09-30T05:27:32.695Z,2.38
2022-09-30T05:32:25.348Z,2.38
2022-09-30T05:37:17.081Z,2.45
2022-09-30T05:42:13.287Z,3.83
2022-09-30T05:47:05.713Z,4.63
2022-09-30T05:51:57.418Z,6.13
2022-09-30T05:56:49.299Z,5.13
2022-09-30T06:01:40.952Z,6.00
2022-09-30T06:06:33.305Z,7.25
2022-09-30T06:11:25.070Z,6.10
2022-09-30T06:16:18.443Z,6.82
2022-09-30T06:21:13.470Z,7.25
2022-09-30T06:26:06.957Z,6.53
2022-09-30T06:30:58.514Z,6.43
2022-09-30T06:35:51.387Z,5.97
2022-09-30T06:40:44.677Z,6.35
2022-09-30T06:45:36.682Z,5.88
2022-09-30T06:50:29.860Z,7.38
2022-09-30T06:55:24.270Z,7.75
2022-09-30T07:00:17.139Z,6.80
2022-09-30T07:05:09.958Z,6.32
2022-09-30T07:10:01.755Z,7.05
2022-09-30T07:14:53.636Z,7.47
2022-09-30T07:19:45.343Z,8.35
2022-09-30T07:24:36.985Z,6.65
2022-09-30T07:29:36.646Z,6.47
2022-09-30T07:34:44.340Z,6.97
2022-09-30T07:39:36.770Z,8.00
2022-09-30T07:44:29.529Z,8.27
2022-09-30T07:49:25.632Z,7.57
2022-09-30T07:54:21.119Z,8.95
2022-09-30T07:59:13.200Z,7.85
2022-09-30T08:04:07.695Z,9.32
2022-09-30T08:08:59.762Z,8.63
2022-09-30T08:13:56.001Z,8.65
2022-09-30T08:18:47.647Z,9.30
2022-09-30T08:23:39.345Z,9.23
2022-09-30T08:28:31.973Z,9.20
2022-09-30T08:33:23.638Z,8.80
2022-09-30T08:38:15.218Z,8.27
2022-09-30T08:43:40.274Z,8.20
2022-09-30T08:48:51.220Z,8.45
2022-09-30T08:53:46.608Z,7.80
2022-09-30T08:58:44.406Z,9.30
2022-09-30T09:03:36.185Z,7.65
2022-09-30T09:08:51.871Z,8.27
2022-09-30T09:13:50.899Z,8.15
2022-09-30T09:18:42.509Z,7.53
2022-09-30T09:23:34.345Z,8.00
2022-09-30T09:28:35.590Z,8.25
2022-09-30T09:33:35.247Z,6.75
2022-09-30T09:38:57.851Z,9.32
2022-09-30T09:44:08.259Z,8.32
2022-09-30T09:49:20.912Z,9.77
2022-09-30T09:54:13.448Z,10.38
2022-09-30T09:59:18.021Z,10.10
2022-09-30T10:04:24.520Z,11.07
2022-09-30T10:09:30.567Z,11.13
2022-09-30T10:14:22.658Z,11.77
2022-09-30T10:19:23.519Z,10.02
2022-09-30T10:24:27.137Z,11.25
2022-09-30T10:29:36.895Z,9.60
2022-09-30T10:34:38.595Z,9.65
2022-09-30T10:39:34.575Z,10.15
2022-09-30T10:44:26.852Z,9.45
2022-09-30T10:49:40.216Z,9.57
2022-09-30T10:54:48.338Z,9.57
2022-09-30T10:59:42.774Z,9.05
2022-09-30T11:04:40.297Z,8.90
2022-09-30T11:09:41.110Z,8.00
2022-09-30T11:14:46.204Z,8.32
2022-09-30T11:19:53.145Z,8.88
2022-09-30T11:24:48.745Z,9.23
2022-09-30T11:30:02.215Z,7.65
2022-09-30T11:35:10.002Z,7.80
2022-09-30T11:40:01.854Z,7.50
2022-09-30T11:45:09.901Z,7.22
2022-09-30T11:50:01.599Z,6.13
2022-09-30T11:55:15.127Z,6.25
2022-09-30T12:00:08.655Z,4.78
2022-09-30T12:05:19.053Z,5.20
2022-09-30T12:10:31.456Z,4.20
2022-09-30T12:15:24.279Z,4.22
2022-09-30T12:20:25.583Z,2.85
2022-09-30T12:25:22.369Z,2.60
2022-09-30T12:30:22.442Z,2.30
2022-09-30T12:35:29.308Z,2.50
2022-09-30T12:41:02.678Z,1.85
2022-09-30T12:46:14.489Z,1.70
2022-09-30T12:51:07.838Z,1.27
2022-09-30T12:56:06.360Z,1.00
2022-09-30T13:01:06.326Z,1.30
2022-09-30T13:06:06.454Z,1.08
2022-09-30T13:11:04.788Z,1.10
2022-09-30T13:16:03.225Z,0.80
2022-09-30T13:21:08.314Z,0.70
2022-09-30T13:25:59.998Z,0.80
2022-09-30T13:31:13.135Z,0.50
2022-09-30T13:36:18.061Z,0.50
2022-09-30T13:41:25.171Z,0.50
2022-09-30T13:46:16.953Z,0.40
2022-09-30T13:51:14.639Z,0.40
2022-09-30T13:56:29.844Z,0.40
2022-09-30T14:01:37.669Z,0.40
2022-09-30T14:07:03.802Z,0.40
2022-09-30T14:12:18.690Z,0.43
2022-09-30T14:17:30.083Z,0.40
2022-09-30T14:22:26.324Z,0.30
2022-09-30T14:27:49.074Z,0.38
2022-09-30T14:32:41.053Z,0.30
2022-09-30T14:37:42.337Z,0.50
2022-09-30T14:42:38.790Z,0.30
2022-09-30T14:47:34.017Z,0.40
2022-09-30T14:52:37.090Z,0.50
2022-09-30T14:57:28.810Z,0.40
2022-09-30T15:02:20.654Z,0.40
2022-09-30T15:07:12.914Z,0.30
2022-09-30T15:12:13.067Z,0.43
2022-09-30T15:17:28.661Z,0.30
2022-09-30T15:22:21.186Z,0.20
2022-09-30T15:27:24.499Z,0.30
2022-09-30T15:32:22.377Z,0.28
2022-09-30T15:37:24.693Z,0.32
2022-09-30T15:42:31.438Z,0.30
2022-09-30T15:47:24.449Z,0.20
2022-09-30T15:52:51.200Z,0.30
2022-09-30T15:57:47.369Z,0.13
2022-09-30T16:02:39.083Z,0.15
2022-09-30T16:07:32.173Z,0.10
2022-09-30T16:12:28.604Z,0.20
2022-09-30T16:17:35.742Z,0.10
2022-09-30T16:22:43.130Z,0.10
2022-09-30T16:27:34.989Z,0.20
2022-09-30T16:32:28.417Z,0.30
2022-09-30T16:37:21.179Z,0.20
2022-09-30T16:42:14.695Z,0.30
2022-09-30T16:47:06.365Z,0.20
2022-09-30T16:51:58.111Z,0.20
2022-09-30T16:56:49.740Z,0.22
2022-09-30T17:01:42.324Z,0.28
2022-09-30T17:06:35.769Z,0.30
2022-09-30T17:11:35.691Z,0.30
2022-09-30T17:16:28.141Z,0.20
2022-09-30T17:21:22.468Z,0.70
2022-09-30T17:26:14.650Z,0.50
2022-09-30T17:31:07.806Z,0.40
2022-09-30T17:36:01.684Z,0.70
2022-09-30T17:41:11.977Z,2.50
2022-09-30T17:46:03.811Z,3.05
2022-09-30T17:50:55.882Z,5.97
2022-09-30T17:56:00.214Z,7.65
2022-09-30T18:00:52.034Z,2.80
2022-09-30T18:05:45.650Z,0.50
2022-09-30T18:10:38.018Z,0.50
2022-09-30T18:15:29.770Z,0.88
2022-09-30T18:20:24.775Z,8.52
2022-09-30T18:25:20.113Z,0.90
2022-09-30T18:30:13.187Z,0.60
2022-09-30T18:35:09.934Z,1.73
2022-09-30T18:40:01.875Z,1.65
2022-09-30T18:44:54.919Z,0.90
2022-09-30T18:49:46.951Z,1.20
2022-09-30T18:54:38.856Z,2.25
2022-09-30T18:59:30.529Z,2.10
2022-09-30T19:04:22.163Z,1.10
2022-09-30T19:09:16.382Z,1.00
2022-09-30T19:14:10.646Z,0.60
2022-09-30T19:19:04.666Z,2.30
2022-09-30T19:23:59.230Z,2.03
2022-09-30T19:28:50.900Z,0.93
2022-09-30T19:33:55.460Z,0.70
2022-09-30T19:38:47.440Z,0.85
2022-09-30T19:43:42.659Z,1.25
2022-09-30T19:48:35.574Z,1.00
2022-09-30T19:53:30.844Z,0.70
2022-09-30T19:58:23.109Z,0.50
2022-09-30T20:03:16.087Z,0.50
2022-09-30T20:08:07.646Z,0.50
2022-09-30T20:12:59.792Z,0.50
2022-09-30T20:17:54.907Z,0.70
2022-09-30T20:29:16.770Z,0.63
2022-09-30T20:34:12.389Z,0.70
2022-09-30T20:39:04.677Z,0.60
2022-09-30T20:43:56.926Z,1.35
2022-09-30T20:48:49.504Z,1.45
2022-09-30T20:53:45.544Z,2.28
2022-09-30T20:58:40.238Z,2.55
2022-09-30T21:03:37.274Z,2.03
2022-09-30T21:08:29.055Z,1.60
2022-09-30T21:13:20.889Z,1.10
2022-09-30T21:18:12.671Z,0.80
2022-09-30T21:23:04.430Z,2.33
2022-09-30T21:27:56.227Z,3.25
2022-09-30T21:32:48.870Z,2.35
2022-09-30T21:37:42.158Z,2.75
2022-09-30T21:42:33.913Z,3.85
2022-09-30T21:47:25.636Z,1.73
2022-09-30T21:52:17.392Z,2.42
2022-09-30T21:57:09.368Z,1.70
2022-09-30T22:02:01.076Z,2.35
2022-09-30T22:06:52.901Z,1.73
2022-09-30T22:11:44.771Z,1.30
2022-09-30T22:16:36.887Z,1.30
2022-09-30T22:21:32.147Z,1.98
2022-09-30T22:26:24.966Z,1.00
2022-09-30T22:31:19.383Z,1.70
2022-09-30T22:36:30.168Z,0.50
2022-09-30T22:41:22.250Z,0.63
2022-09-30T22:46:13.966Z,0.63
2022-09-30T22:51:05.837Z,0.50
2022-09-30T22:55:57.756Z,0.40
2022-09-30T23:00:55.207Z,0.50
2022-09-30T23:05:46.845Z,0.52
2022-09-30T23:10:40.068Z,0.38
2022-09-30T23:15:31.746Z,1.23
2022-09-30T23:20:23.424Z,0.55
2022-09-30T23:25:15.019Z,0.40
2022-09-30T23:30:07.243Z,0.40
2022-09-30T23:34:58.884Z,0.40
2022-09-30T23:39:50.605Z,0.47
2022-09-30T23:44:42.256Z,0.50
2022-09-30T23:49:35.878Z,0.40
2022-09-30T23:54:27.847Z,0.40
2022-09-30T23:59:20.280Z,0.30
